Lewek Teal — V7ZE4 — position and weather

sailwx.info

Track history (hours):
 
Tides and Currents Weather Stations Pressure Air Temp Water Temp Dewpoint Dewpoint Depression Visibility Wind Speed Wind Dir Waves Ship Positions

Lewek Teal

Last reported at 2018-Feb-19 20:12 UTC. Time now 2018-Feb-20 17:56 UTC.
Position N 27°44' W 015°15'.

Length 92 m; draft 6.5 m.

Type: Tug. MMSI: 538004803.

Date/timePositionNaut miles runAvg speedWind from/ knotsBaromVisibWave heightAir tempDewpointWater temp
2018-Feb-19 20:12N 27°44' W 015°15'312.7
2018-Feb-19 19:58N 27°47' W 015°15'612.8
2018-Feb-19 19:31N 27°53' W 015°15'612.5
2018-Feb-19 19:01N 27°59' W 015°16'612.0
2018-Feb-19 18:31N 28°05' W 015°18'510.7
2018-Feb-19 18:00N 28°07' W 015°23'1 1.5
2018-Feb-19 17:22N 28°07' W 015°24'0 0.0
2018-Feb-19 16:52N 28°07' W 015°24'0 0.0
2018-Feb-19 16:22N 28°07' W 015°24'0 0.0
2018-Feb-19 15:52N 28°07' W 015°24'0 0.0
2018-Feb-19 15:22N 28°07' W 015°24'0 0.0
2018-Feb-19 14:55N 28°07' W 015°24'0 0.0
2018-Feb-19 14:19N 28°07' W 015°24'0 0.0
2018-Feb-19 13:55N 28°07' W 015°24'0 0.0
2018-Feb-19 13:25N 28°07' W 015°24'0 0.0
2018-Feb-19 12:55N 28°07' W 015°24'0 0.0
2018-Feb-19 12:25N 28°07' W 015°24'0 0.0
2018-Feb-19 11:58N 28°07' W 015°24'0 0.1
2018-Feb-19 11:25N 28°07' W 015°24'0 0.1
2018-Feb-19 10:58N 28°07' W 015°24'0 0.3
2018-Feb-19 10:31N 28°07' W 015°24'1 2.3
2018-Feb-19 10:01N 28°07' W 015°23'0 0.8
2018-Feb-19 09:30N 28°07' W 015°23'0 0.7
2018-Feb-19 09:00N 28°07' W 015°23'3 6.0
2018-Feb-19 08:31N 28°10' W 015°21'5 9.9
2018-Feb-19 08:00N 28°15' W 015°19'5 9.9
2018-Feb-19 07:31N 28°19' W 015°18'5 9.8
2018-Feb-19 07:00N 28°24' W 015°16'5 9.8
2018-Feb-19 06:31N 28°29' W 015°14'5 9.7
2018-Feb-19 06:00N 28°33' W 015°13'5 9.7
2018-Feb-19 05:29N 28°38' W 015°11'711.3
2018-Feb-19 04:54N 28°45' W 015°10'  
2018-Feb-13 13:32N 49°49' W 003°16'1 8.1
2018-Feb-13 13:27N 49°50' W 003°15'4 9.3
2018-Feb-13 13:00N 49°52' W 003°10'610.5
2018-Feb-13 12:27N 49°55' W 003°02'510.9
2018-Feb-13 12:00N 49°57' W 002°55'510.9
2018-Feb-13 11:30N 49°59' W 002°48'510.7
2018-Feb-13 11:00N 50°01' W 002°40'510.4
2018-Feb-13 10:30N 50°02' W 002°32'19 6.9
2018-Feb-13 07:42N 50°07' W 002°03'1 6.7
2018-Feb-13 07:30N 50°08' W 002°01'3 6.7
2018-Feb-13 07:00N 50°09' W 001°56'3 6.3
2018-Feb-13 06:30N 50°09' W 001°51'3 6.5
2018-Feb-13 06:00N 50°10' W 001°46'3 7.0
2018-Feb-13 05:30N 50°11' W 001°41'4 8.0
2018-Feb-13 05:00N 50°12' W 001°35'4 8.7
2018-Feb-13 04:30N 50°13' W 001°28'5 9.2
2018-Feb-13 04:00N 50°15' W 001°21'5 9.7
2018-Feb-13 03:30N 50°16' W 001°14'510.5
2018-Feb-13 03:00N 50°18' W 001°06'2611.5
2018-Feb-13 00:44N 50°25' W 000°27'311.9
2018-Feb-13 00:30N 50°25' W 000°23'611.8
2018-Feb-13 00:00N 50°27' W 000°14'611.6
2018-Feb-12 23:30N 50°28' W 000°05'611.5
2018-Feb-12 23:00N 50°30' E 000°04'611.3
2018-Feb-12 22:30N 50°31' E 000°12'611.1
2018-Feb-12 22:00N 50°33' E 000°21'510.9
2018-Feb-12 21:30N 50°34' E 000°29'510.7
2018-Feb-12 21:00N 50°36' E 000°37'510.9
2018-Feb-12 20:31N 50°40' E 000°44'511.0
2018-Feb-12 20:01N 50°43' E 000°51'510.8
2018-Feb-12 19:30N 50°46' E 000°58'611.4
2018-Feb-12 19:00N 50°49' E 001°05'611.9
2018-Feb-12 18:29N 50°53' E 001°13'612.6
2018-Feb-12 18:00N 50°57' E 001°21'713.6
2018-Feb-12 17:30N 51°01' E 001°28'714.1
2018-Feb-12 17:00N 51°07' E 001°36'713.6
2018-Feb-12 16:30N 51°12' E 001°43'713.0
2018-Feb-12 16:00N 51°17' E 001°49'612.4
2018-Feb-12 15:30N 51°22' E 001°54'612.0
2018-Feb-12 15:00N 51°27' E 001°60'611.5
2018-Feb-12 14:31N 51°32' E 002°05'611.1
2018-Feb-12 13:59N 51°36' E 002°11'610.7
2018-Feb-12 13:28N 51°40' E 002°17'510.5
2018-Feb-12 13:00N 51°44' E 002°22'236 8.0
2018-Feb-11 07:21N 54°02' E 007°40'410.4
2018-Feb-11 07:00N 54°02' E 007°46'611.1
2018-Feb-11 06:28N 54°01' E 007°56'511.3
2018-Feb-11 05:59N 54°01' E 008°06'610.9
2018-Feb-11 05:29N 54°00' E 008°15'5 9.7
2018-Feb-11 05:00N 53°59' E 008°23'510.1
2018-Feb-11 04:30N 53°58' E 008°31'510.9
2018-Feb-11 04:00N 53°56' E 008°40'613.1
2018-Feb-11 03:31N 53°51' E 008°46'713.4
2018-Feb-11 03:00N 53°51' E 008°57'713.2
2018-Feb-11 02:30N 53°53' E 009°08'510.4
2018-Feb-11 02:01N 53°52' E 009°17'713.7
2018-Feb-11 01:31N 53°47' E 009°24'713.4
2018-Feb-11 01:00N 53°41' E 009°30'612.7
2018-Feb-11 00:30N 53°36' E 009°36'611.6
2018-Feb-11 00:01N 53°34' E 009°45'510.0
2018-Feb-10 23:31N 53°33' E 009°53'4 7.1
2018-Feb-10 23:01N 53°30' E 009°58'1 2.6
2018-Feb-10 22:29N 53°29' E 009°59'0 0.0
2018-Feb-10 21:56N 53°29' E 009°59'0 0.0
2018-Feb-10 21:29N 53°29' E 009°59'0 0.0
2018-Feb-10 20:59N 53°29' E 009°59'0 0.0
2018-Feb-10 20:29N 53°29' E 009°59'0 0.0
2018-Feb-10 19:59N 53°29' E 009°59'0 0.0
2018-Feb-10 19:29N 53°29' E 009°59'0 0.0
2018-Feb-10 18:59N 53°29' E 009°59'0 0.0
2018-Feb-10 18:29N 53°29' E 009°59'0 0.0
2018-Feb-10 17:59N 53°29' E 009°59'0 0.0
2018-Feb-10 17:29N 53°29' E 009°59'0 0.0
2018-Feb-10 16:59N 53°29' E 009°59'0 0.0
2018-Feb-10 16:29N 53°29' E 009°59'0 0.0
2018-Feb-10 15:59N 53°29' E 009°59'0 0.0
2018-Feb-10 15:29N 53°29' E 009°59'0 0.0
2018-Feb-10 14:59N 53°29' E 009°59'0 0.0
2018-Feb-10 14:29N 53°29' E 009°59'0 0.0
2018-Feb-10 13:59N 53°29' E 009°59'0 0.0
2018-Feb-10 13:29N 53°29' E 009°59'0 0.0
2018-Feb-10 12:59N 53°29' E 009°59'0 0.0
2018-Feb-10 12:29N 53°29' E 009°59'0 0.0
2018-Feb-10 11:59N 53°29' E 009°59'0 0.0
2018-Feb-10 11:29N 53°29' E 009°59'0 0.0
2018-Feb-10 10:59N 53°29' E 009°59'0 0.0
2018-Feb-10 10:29N 53°29' E 009°59'0 0.0
2018-Feb-10 09:59N 53°29' E 009°59'0 0.0
2018-Feb-10 09:29N 53°29' E 009°59'0 0.0
2018-Feb-10 08:59N 53°29' E 009°59'0 0.0
2018-Feb-10 08:26N 53°29' E 009°59'0 0.0
2018-Feb-10 07:59N 53°29' E 009°59'0 0.0
2018-Feb-10 07:29N 53°29' E 009°59'0 0.0
2018-Feb-10 06:59N 53°29' E 009°59'0 0.0
2018-Feb-10 06:29N 53°29' E 009°59'0 0.0
2018-Feb-10 05:59N 53°29' E 009°59'0 0.0
2018-Feb-10 05:29N 53°29' E 009°59'0 0.0
2018-Feb-10 04:59N 53°29' E 009°59'0 0.0
2018-Feb-10 04:29N 53°29' E 009°59'0 0.0
2018-Feb-10 03:59N 53°29' E 009°59'0 0.0
2018-Feb-10 03:29N 53°29' E 009°59'0 0.0
2018-Feb-10 02:59N 53°29' E 009°59'0 0.0
2018-Feb-10 02:29N 53°29' E 009°59'0 0.0
2018-Feb-10 01:59N 53°29' E 009°59'0 0.0
2018-Feb-10 01:29N 53°29' E 009°59'0 0.0
2018-Feb-10 00:59N 53°29' E 009°59'0 0.0
2018-Feb-10 00:29N 53°29' E 009°59'0 0.0
2018-Feb-09 23:59N 53°29' E 009°59'0 0.0
2018-Feb-09 23:29N 53°29' E 009°59'0 0.0
2018-Feb-09 22:59N 53°29' E 009°59'0 0.0
2018-Feb-09 22:44N 53°29' E 009°59'  
Track history (hours):
 
Tides and Currents Weather Stations Pressure Air Temp Water Temp Dewpoint Dewpoint Depression Visibility Wind Speed Wind Dir Waves Ship Positions

Lewek Teal

Last reported at 2018-Feb-19 20:12 UTC. Time now 2018-Feb-20 17:56 UTC.
Position N 27°44' W 015°15'.

Length 92 m; draft 6.5 m.

Type: Tug. MMSI: 538004803.

Date/timePositionNaut miles runAvg speedWind from/ knotsBaromVisibWave heightAir tempDewpointWater temp
2018-Feb-19 20:12N 27°44' W 015°15'312.7
2018-Feb-19 19:58N 27°47' W 015°15'612.8
2018-Feb-19 19:31N 27°53' W 015°15'612.5
2018-Feb-19 19:01N 27°59' W 015°16'612.0
2018-Feb-19 18:31N 28°05' W 015°18'510.7
2018-Feb-19 18:00N 28°07' W 015°23'1 1.5
2018-Feb-19 17:22N 28°07' W 015°24'0 0.0
2018-Feb-19 16:52N 28°07' W 015°24'0 0.0
2018-Feb-19 16:22N 28°07' W 015°24'0 0.0
2018-Feb-19 15:52N 28°07' W 015°24'0 0.0
2018-Feb-19 15:22N 28°07' W 015°24'0 0.0
2018-Feb-19 14:55N 28°07' W 015°24'0 0.0
2018-Feb-19 14:19N 28°07' W 015°24'0 0.0
2018-Feb-19 13:55N 28°07' W 015°24'0 0.0
2018-Feb-19 13:25N 28°07' W 015°24'0 0.0
2018-Feb-19 12:55N 28°07' W 015°24'0 0.0
2018-Feb-19 12:25N 28°07' W 015°24'0 0.0
2018-Feb-19 11:58N 28°07' W 015°24'0 0.1
2018-Feb-19 11:25N 28°07' W 015°24'0 0.1
2018-Feb-19 10:58N 28°07' W 015°24'0 0.3
2018-Feb-19 10:31N 28°07' W 015°24'1 2.3
2018-Feb-19 10:01N 28°07' W 015°23'0 0.8
2018-Feb-19 09:30N 28°07' W 015°23'0 0.7
2018-Feb-19 09:00N 28°07' W 015°23'3 6.0
2018-Feb-19 08:31N 28°10' W 015°21'5 9.9
2018-Feb-19 08:00N 28°15' W 015°19'5 9.9
2018-Feb-19 07:31N 28°19' W 015°18'5 9.8
2018-Feb-19 07:00N 28°24' W 015°16'5 9.8
2018-Feb-19 06:31N 28°29' W 015°14'5 9.7
2018-Feb-19 06:00N 28°33' W 015°13'5 9.7
2018-Feb-19 05:29N 28°38' W 015°11'711.3
2018-Feb-19 04:54N 28°45' W 015°10'  
2018-Feb-13 13:32N 49°49' W 003°16'1 8.1
2018-Feb-13 13:27N 49°50' W 003°15'4 9.3
2018-Feb-13 13:00N 49°52' W 003°10'610.5
2018-Feb-13 12:27N 49°55' W 003°02'510.9
2018-Feb-13 12:00N 49°57' W 002°55'510.9
2018-Feb-13 11:30N 49°59' W 002°48'510.7
2018-Feb-13 11:00N 50°01' W 002°40'510.4
2018-Feb-13 10:30N 50°02' W 002°32'19 6.9
2018-Feb-13 07:42N 50°07' W 002°03'1 6.7
2018-Feb-13 07:30N 50°08' W 002°01'3 6.7
2018-Feb-13 07:00N 50°09' W 001°56'3 6.3
2018-Feb-13 06:30N 50°09' W 001°51'3 6.5
2018-Feb-13 06:00N 50°10' W 001°46'3 7.0
2018-Feb-13 05:30N 50°11' W 001°41'4 8.0
2018-Feb-13 05:00N 50°12' W 001°35'4 8.7
2018-Feb-13 04:30N 50°13' W 001°28'5 9.2
2018-Feb-13 04:00N 50°15' W 001°21'5 9.7
2018-Feb-13 03:30N 50°16' W 001°14'510.5
2018-Feb-13 03:00N 50°18' W 001°06'2611.5
2018-Feb-13 00:44N 50°25' W 000°27'311.9
2018-Feb-13 00:30N 50°25' W 000°23'611.8
2018-Feb-13 00:00N 50°27' W 000°14'611.6
2018-Feb-12 23:30N 50°28' W 000°05'611.5
2018-Feb-12 23:00N 50°30' E 000°04'611.3
2018-Feb-12 22:30N 50°31' E 000°12'611.1
2018-Feb-12 22:00N 50°33' E 000°21'510.9
2018-Feb-12 21:30N 50°34' E 000°29'510.7
2018-Feb-12 21:00N 50°36' E 000°37'510.9
2018-Feb-12 20:31N 50°40' E 000°44'511.0
2018-Feb-12 20:01N 50°43' E 000°51'510.8
2018-Feb-12 19:30N 50°46' E 000°58'611.4
2018-Feb-12 19:00N 50°49' E 001°05'611.9
2018-Feb-12 18:29N 50°53' E 001°13'612.6
2018-Feb-12 18:00N 50°57' E 001°21'713.6
2018-Feb-12 17:30N 51°01' E 001°28'714.1
2018-Feb-12 17:00N 51°07' E 001°36'713.6
2018-Feb-12 16:30N 51°12' E 001°43'713.0
2018-Feb-12 16:00N 51°17' E 001°49'612.4
2018-Feb-12 15:30N 51°22' E 001°54'612.0
2018-Feb-12 15:00N 51°27' E 001°60'611.5
2018-Feb-12 14:31N 51°32' E 002°05'611.1
2018-Feb-12 13:59N 51°36' E 002°11'610.7
2018-Feb-12 13:28N 51°40' E 002°17'510.5
2018-Feb-12 13:00N 51°44' E 002°22'236 8.0
2018-Feb-11 07:21N 54°02' E 007°40'410.4
2018-Feb-11 07:00N 54°02' E 007°46'611.1
2018-Feb-11 06:28N 54°01' E 007°56'511.3
2018-Feb-11 05:59N 54°01' E 008°06'610.9
2018-Feb-11 05:29N 54°00' E 008°15'5 9.7
2018-Feb-11 05:00N 53°59' E 008°23'510.1
2018-Feb-11 04:30N 53°58' E 008°31'510.9
2018-Feb-11 04:00N 53°56' E 008°40'613.1
2018-Feb-11 03:31N 53°51' E 008°46'713.4
2018-Feb-11 03:00N 53°51' E 008°57'713.2
2018-Feb-11 02:30N 53°53' E 009°08'510.4
2018-Feb-11 02:01N 53°52' E 009°17'713.7
2018-Feb-11 01:31N 53°47' E 009°24'713.4
2018-Feb-11 01:00N 53°41' E 009°30'612.7
2018-Feb-11 00:30N 53°36' E 009°36'611.6
2018-Feb-11 00:01N 53°34' E 009°45'510.0
2018-Feb-10 23:31N 53°33' E 009°53'4 7.1
2018-Feb-10 23:01N 53°30' E 009°58'1 2.6
2018-Feb-10 22:29N 53°29' E 009°59'0 0.0
2018-Feb-10 21:56N 53°29' E 009°59'0 0.0
2018-Feb-10 21:29N 53°29' E 009°59'0 0.0
2018-Feb-10 20:59N 53°29' E 009°59'0 0.0
2018-Feb-10 20:29N 53°29' E 009°59'0 0.0
2018-Feb-10 19:59N 53°29' E 009°59'0 0.0
2018-Feb-10 19:29N 53°29' E 009°59'0 0.0
2018-Feb-10 18:59N 53°29' E 009°59'0 0.0
2018-Feb-10 18:29N 53°29' E 009°59'0 0.0
2018-Feb-10 17:59N 53°29' E 009°59'0 0.0
2018-Feb-10 17:29N 53°29' E 009°59'0 0.0
2018-Feb-10 16:59N 53°29' E 009°59'0 0.0
2018-Feb-10 16:29N 53°29' E 009°59'0 0.0
2018-Feb-10 15:59N 53°29' E 009°59'0 0.0
2018-Feb-10 15:29N 53°29' E 009°59'0 0.0
2018-Feb-10 14:59N 53°29' E 009°59'0 0.0
2018-Feb-10 14:29N 53°29' E 009°59'0 0.0
2018-Feb-10 13:59N 53°29' E 009°59'0 0.0
2018-Feb-10 13:29N 53°29' E 009°59'0 0.0
2018-Feb-10 12:59N 53°29' E 009°59'0 0.0
2018-Feb-10 12:29N 53°29' E 009°59'0 0.0
2018-Feb-10 11:59N 53°29' E 009°59'0 0.0
2018-Feb-10 11:29N 53°29' E 009°59'0 0.0
2018-Feb-10 10:59N 53°29' E 009°59'0 0.0
2018-Feb-10 10:29N 53°29' E 009°59'0 0.0
2018-Feb-10 09:59N 53°29' E 009°59'0 0.0
2018-Feb-10 09:29N 53°29' E 009°59'0 0.0
2018-Feb-10 08:59N 53°29' E 009°59'0 0.0
2018-Feb-10 08:26N 53°29' E 009°59'0 0.0
2018-Feb-10 07:59N 53°29' E 009°59'0 0.0
2018-Feb-10 07:29N 53°29' E 009°59'0 0.0
2018-Feb-10 06:59N 53°29' E 009°59'0 0.0
2018-Feb-10 06:29N 53°29' E 009°59'0 0.0
2018-Feb-10 05:59N 53°29' E 009°59'0 0.0
2018-Feb-10 05:29N 53°29' E 009°59'0 0.0
2018-Feb-10 04:59N 53°29' E 009°59'0 0.0
2018-Feb-10 04:29N 53°29' E 009°59'0 0.0
2018-Feb-10 03:59N 53°29' E 009°59'0 0.0
2018-Feb-10 03:29N 53°29' E 009°59'0 0.0
2018-Feb-10 02:59N 53°29' E 009°59'0 0.0
2018-Feb-10 02:29N 53°29' E 009°59'0 0.0
2018-Feb-10 01:59N 53°29' E 009°59'0 0.0
2018-Feb-10 01:29N 53°29' E 009°59'0 0.0
2018-Feb-10 00:59N 53°29' E 009°59'0 0.0
2018-Feb-10 00:29N 53°29' E 009°59'0 0.0
2018-Feb-09 23:59N 53°29' E 009°59'0 0.0
2018-Feb-09 23:29N 53°29' E 009°59'0 0.0
2018-Feb-09 22:59N 53°29' E 009°59'0 0.0
2018-Feb-09 22:44N 53°29' E 009°59'  

Dump ship's entire track history